sensor_id;sensor_type;location;lat;lon;timestamp;pressure;altitude;pressure_sealevel;temperature;humidity
76052;BME280;64751;48.708;9.710;2023-09-30T14:32:37;98462.59;;;19.15;53.00
76052;BME280;64751;48.708;9.710;2023-09-30T14:35:06;98456.47;;;19.15;52.70
76052;BME280;64751;48.708;9.710;2023-09-30T14:37:35;98461.81;;;19.15;52.34
76052;BME280;64751;48.708;9.710;2023-09-30T14:40:03;98463.88;;;19.18;52.07
76052;BME280;64751;48.708;9.710;2023-09-30T14:42:32;98467.34;;;19.18;52.41
76052;BME280;64751;48.708;9.710;2023-09-30T14:44:59;98463.75;;;19.23;52.70
76052;BME280;64751;48.708;9.710;2023-09-30T14:47:27;98463.13;;;19.26;52.47
76052;BME280;64751;48.708;9.710;2023-09-30T14:49:56;98457.47;;;19.27;52.51
76052;BME280;64751;48.708;9.710;2023-09-30T14:52:27;98453.66;;;19.28;53.66
76052;BME280;64751;48.708;9.710;2023-09-30T14:54:55;98461.09;;;19.31;53.76
76052;BME280;64751;48.708;9.710;2023-09-30T14:57:22;98465.66;;;19.31;52.67
76052;BME280;64751;48.708;9.710;2023-09-30T14:59:51;98464.09;;;19.30;53.67
76052;BME280;64751;48.708;9.710;2023-09-30T15:02:18;98457.94;;;19.29;53.68
76052;BME280;64751;48.708;9.710;2023-09-30T15:04:47;98454.00;;;19.27;54.21
76052;BME280;64751;48.708;9.710;2023-09-30T15:07:17;98449.72;;;19.26;52.87
76052;BME280;64751;48.708;9.710;2023-09-30T15:09:45;98457.75;;;19.26;54.17
76052;BME280;64751;48.708;9.710;2023-09-30T15:12:12;98457.47;;;19.27;55.23
76052;BME280;64751;48.708;9.710;2023-09-30T15:14:40;98454.78;;;19.27;54.54
76052;BME280;64751;48.708;9.710;2023-09-30T15:17:07;98454.78;;;19.27;56.16
76052;BME280;64751;48.708;9.710;2023-09-30T15:19:35;98460.91;;;19.28;55.74
76052;BME280;64751;48.708;9.710;2023-09-30T15:22:02;98454.31;;;19.25;55.73
76052;BME280;64751;48.708;9.710;2023-09-30T15:24:32;98459.81;;;19.29;55.67
76052;BME280;64751;48.708;9.710;2023-09-30T15:27:00;98456.34;;;19.28;55.72
76052;BME280;64751;48.708;9.710;2023-09-30T15:29:28;98458.22;;;19.28;55.06
76052;BME280;64751;48.708;9.710;2023-09-30T15:31:55;98456.19;;;19.25;55.73
76052;BME280;64751;48.708;9.710;2023-09-30T15:34:23;98453.81;;;19.23;54.36
76052;BME280;64751;48.708;9.710;2023-09-30T15:36:50;98449.88;;;19.21;54.61
76052;BME280;64751;48.708;9.710;2023-09-30T15:39:18;98452.56;;;19.21;56.67
76052;BME280;64751;48.708;9.710;2023-09-30T15:41:47;98456.16;;;19.16;57.59
76052;BME280;64751;48.708;9.710;2023-09-30T15:44:14;98454.41;;;19.12;57.86
76052;BME280;64751;48.708;9.710;2023-09-30T15:46:42;98457.69;;;19.09;55.17
76052;BME280;64751;48.708;9.710;2023-09-30T15:49:09;98459.09;;;19.06;56.25
76052;BME280;64751;48.708;9.710;2023-09-30T15:51:37;98463.19;;;19.04;56.56
76052;BME280;64751;48.708;9.710;2023-09-30T15:54:05;98465.50;;;18.97;55.79
76052;BME280;64751;48.708;9.710;2023-09-30T15:56:32;98459.81;;;18.90;56.50
76052;BME280;64751;48.708;9.710;2023-09-30T15:59:01;98462.91;;;18.83;56.45
76052;BME280;64751;48.708;9.710;2023-09-30T16:01:30;98467.63;;;18.77;57.02
76052;BME280;64751;48.708;9.710;2023-09-30T16:03:57;98469.47;;;18.68;57.57
76052;BME280;64751;48.708;9.710;2023-09-30T16:06:25;98472.25;;;18.63;58.87
76052;BME280;64751;48.708;9.710;2023-09-30T16:08:53;98468.28;;;18.61;59.28
76052;BME280;64751;48.708;9.710;2023-09-30T16:11:23;98464.16;;;18.55;59.58
76052;BME280;64751;48.708;9.710;2023-09-30T16:13:50;98466.78;;;18.46;59.60
76052;BME280;64751;48.708;9.710;2023-09-30T16:16:19;98464.69;;;18.43;59.97
76052;BME280;64751;48.708;9.710;2023-09-30T16:18:46;98473.34;;;18.40;60.66
76052;BME280;64751;48.708;9.710;2023-09-30T16:21:14;98475.50;;;18.38;60.80
76052;BME280;64751;48.708;9.710;2023-09-30T16:23:41;98474.84;;;18.33;61.01
76052;BME280;64751;48.708;9.710;2023-09-30T16:26:09;98475.16;;;18.31;61.15
76052;BME280;64751;48.708;9.710;2023-09-30T16:28:40;98474.47;;;18.26;61.56
76052;BME280;64751;48.708;9.710;2023-09-30T16:31:07;98474.28;;;18.22;62.21
76052;BME280;64751;48.708;9.710;2023-09-30T16:33:36;98472.44;;;18.09;63.91
76052;BME280;64751;48.708;9.710;2023-09-30T16:36:04;98463.56;;;18.00;64.74
76052;BME280;64751;48.708;9.710;2023-09-30T16:38:32;98467.63;;;17.97;64.50
76052;BME280;64751;48.708;9.710;2023-09-30T16:40:59;98472.38;;;17.87;65.12
76052;BME280;64751;48.708;9.710;2023-09-30T16:43:28;98474.09;;;17.83;65.36
76052;BME280;64751;48.708;9.710;2023-09-30T16:45:59;98480.63;;;17.77;65.87
76052;BME280;64751;48.708;9.710;2023-09-30T16:48:26;98477.28;;;17.71;65.85
76052;BME280;64751;48.708;9.710;2023-09-30T16:50:55;98479.28;;;17.66;66.50
76052;BME280;64751;48.708;9.710;2023-09-30T16:53:23;98483.72;;;17.57;67.43
76052;BME280;64751;48.708;9.710;2023-09-30T16:55:51;98482.00;;;17.47;67.52
76052;BME280;64751;48.708;9.710;2023-09-30T16:58:18;98487.56;;;17.37;68.32
76052;BME280;64751;48.708;9.710;2023-09-30T17:00:46;98479.06;;;17.21;69.08
76052;BME280;64751;48.708;9.710;2023-09-30T17:03:14;98482.88;;;17.15;68.86
76052;BME280;64751;48.708;9.710;2023-09-30T17:05:41;98494.44;;;17.11;69.35
76052;BME280;64751;48.708;9.710;2023-09-30T17:08:10;98488.81;;;16.99;69.22
76052;BME280;64751;48.708;9.710;2023-09-30T17:10:38;98496.41;;;16.92;69.67
76052;BME280;64751;48.708;9.710;2023-09-30T17:13:05;98493.41;;;16.80;69.99
76052;BME280;64751;48.708;9.710;2023-09-30T17:15:32;98497.75;;;16.76;69.88
76052;BME280;64751;48.708;9.710;2023-09-30T17:18:02;98495.66;;;16.73;69.70
76052;BME280;64751;48.708;9.710;2023-09-30T17:20:29;98501.66;;;16.64;70.21
76052;BME280;64751;48.708;9.710;2023-09-30T17:22:57;98503.34;;;16.60;70.27
76052;BME280;64751;48.708;9.710;2023-09-30T17:25:26;98501.53;;;16.56;70.01
76052;BME280;64751;48.708;9.710;2023-09-30T17:27:54;98502.41;;;16.51;70.23
76052;BME280;64751;48.708;9.710;2023-09-30T17:30:22;98512.81;;;16.48;70.52
76052;BME280;64751;48.708;9.710;2023-09-30T17:32:49;98501.72;;;16.41;71.13
76052;BME280;64751;48.708;9.710;2023-09-30T17:35:17;98496.19;;;16.37;71.06
76052;BME280;64751;48.708;9.710;2023-09-30T17:37:44;98497.56;;;16.35;70.88
76052;BME280;64751;48.708;9.710;2023-09-30T17:40:13;98512.56;;;16.31;71.54
76052;BME280;64751;48.708;9.710;2023-09-30T17:42:42;98512.91;;;16.24;71.37
76052;BME280;64751;48.708;9.710;2023-09-30T17:45:10;98511.69;;;16.17;71.58
76052;BME280;64751;48.708;9.710;2023-09-30T17:47:38;98509.97;;;16.07;72.20
76052;BME280;64751;48.708;9.710;2023-09-30T17:50:07;98514.56;;;16.02;72.25
76052;BME280;64751;48.708;9.710;2023-09-30T17:52:35;98510.75;;;15.89;72.15
76052;BME280;64751;48.708;9.710;2023-09-30T17:55:03;98509.44;;;15.86;71.96
76052;BME280;64751;48.708;9.710;2023-09-30T17:57:31;98518.00;;;15.83;71.96
76052;BME280;64751;48.708;9.710;2023-09-30T17:59:59;98507.69;;;15.77;72.38
76052;BME280;64751;48.708;9.710;2023-09-30T18:02:27;98520.81;;;15.73;73.15
76052;BME280;64751;48.708;9.710;2023-09-30T18:04:55;98513.59;;;15.74;72.83
76052;BME280;64751;48.708;9.710;2023-09-30T18:07:22;98518.69;;;15.70;72.85
76052;BME280;64751;48.708;9.710;2023-09-30T18:09:51;98514.72;;;15.68;73.15
76052;BME280;64751;48.708;9.710;2023-09-30T18:12:19;98522.00;;;15.62;73.68
76052;BME280;64751;48.708;9.710;2023-09-30T18:14:46;98520.47;;;15.56;74.22
76052;BME280;64751;48.708;9.710;2023-09-30T18:17:15;98522.91;;;15.53;74.14
76052;BME280;64751;48.708;9.710;2023-09-30T18:19:42;98526.94;;;15.50;73.55
76052;BME280;64751;48.708;9.710;2023-09-30T18:22:10;98513.09;;;15.48;73.64
76052;BME280;64751;48.708;9.710;2023-09-30T18:24:39;98507.00;;;15.43;73.57
76052;BME280;64751;48.708;9.710;2023-09-30T18:27:07;98512.63;;;15.41;73.69
76052;BME280;64751;48.708;9.710;2023-09-30T18:29:34;98510.25;;;15.40;73.95
76052;BME280;64751;48.708;9.710;2023-09-30T18:32:02;98516.41;;;15.35;73.64
76052;BME280;64751;48.708;9.710;2023-09-30T18:34:31;98520.19;;;15.29;73.84
76052;BME280;64751;48.708;9.710;2023-09-30T18:36:59;98522.13;;;15.23;74.57
76052;BME280;64751;48.708;9.710;2023-09-30T18:39:26;98515.28;;;15.17;74.32
76052;BME280;64751;48.708;9.710;2023-09-30T18:41:54;98517.97;;;15.12;73.77
76052;BME280;64751;48.708;9.710;2023-09-30T18:44:21;98528.38;;;15.09;73.57
76052;BME280;64751;48.708;9.710;2023-09-30T18:46:49;98524.69;;;15.05;73.88
76052;BME280;64751;48.708;9.710;2023-09-30T18:49:17;98527.13;;;15.01;74.44
76052;BME280;64751;48.708;9.710;2023-09-30T18:51:46;98530.06;;;15.00;74.74
76052;BME280;64751;48.708;9.710;2023-09-30T18:54:13;98518.91;;;14.98;74.43
76052;BME280;64751;48.708;9.710;2023-09-30T18:56:41;98522.66;;;14.97;74.20
76052;BME280;64751;48.708;9.710;2023-09-30T18:59:09;98516.34;;;14.88;74.73
76052;BME280;64751;48.708;9.710;2023-09-30T19:01:37;98520.06;;;14.87;74.70
76052;BME280;64751;48.708;9.710;2023-09-30T19:04:05;98522.75;;;14.82;74.50
76052;BME280;64751;48.708;9.710;2023-09-30T19:06:33;98520.94;;;14.77;74.49
76052;BME280;64751;48.708;9.710;2023-09-30T19:09:02;98525.75;;;14.75;74.64
76052;BME280;64751;48.708;9.710;2023-09-30T19:11:30;98531.88;;;14.76;74.13
76052;BME280;64751;48.708;9.710;2023-09-30T19:13:57;98525.31;;;14.68;74.69
76052;BME280;64751;48.708;9.710;2023-09-30T19:16:26;98534.63;;;14.66;74.83
76052;BME280;64751;48.708;9.710;2023-09-30T19:18:54;98528.25;;;14.62;74.38
76052;BME280;64751;48.708;9.710;2023-09-30T19:21:22;98532.53;;;14.58;74.39
76052;BME280;64751;48.708;9.710;2023-09-30T19:23:50;98527.28;;;14.52;74.21
76052;BME280;64751;48.708;9.710;2023-09-30T19:26:19;98539.50;;;14.48;74.29
76052;BME280;64751;48.708;9.710;2023-09-30T19:28:47;98541.69;;;14.41;74.98
76052;BME280;64751;48.708;9.710;2023-09-30T19:31:15;98544.34;;;14.41;74.47
76052;BME280;64751;48.708;9.710;2023-09-30T19:33:43;98548.63;;;14.37;74.75
76052;BME280;64751;48.708;9.710;2023-09-30T19:36:12;98542.78;;;14.35;75.07
76052;BME280;64751;48.708;9.710;2023-09-30T19:38:40;98546.78;;;14.33;75.31
76052;BME280;64751;48.708;9.710;2023-09-30T19:41:14;98551.03;;;14.29;75.61
76052;BME280;64751;48.708;9.710;2023-09-30T19:43:43;98544.16;;;14.28;75.55
76052;BME280;64751;48.708;9.710;2023-09-30T19:46:10;98547.34;;;14.25;74.80
76052;BME280;64751;48.708;9.710;2023-09-30T19:48:38;98548.69;;;14.22;75.11
76052;BME280;64751;48.708;9.710;2023-09-30T19:51:06;98560.66;;;14.20;75.01
76052;BME280;64751;48.708;9.710;2023-09-30T19:53:34;98560.97;;;14.13;75.28
76052;BME280;64751;48.708;9.710;2023-09-30T19:56:03;98561.47;;;14.15;75.27
76052;BME280;64751;48.708;9.710;2023-09-30T19:58:30;98562.06;;;14.07;74.96
76052;BME280;64751;48.708;9.710;2023-09-30T20:01:05;98560.97;;;14.08;74.31
76052;BME280;64751;48.708;9.710;2023-09-30T20:03:33;98566.88;;;14.05;74.78
76052;BME280;64751;48.708;9.710;2023-09-30T20:06:00;98561.03;;;13.98;74.32
76052;BME280;64751;48.708;9.710;2023-09-30T20:08:29;98567.16;;;13.94;74.18
76052;BME280;64751;48.708;9.710;2023-09-30T20:10:57;98566.69;;;13.81;75.05
76052;BME280;64751;48.708;9.710;2023-09-30T20:13:24;98577.31;;;13.81;74.91
76052;BME280;64751;48.708;9.710;2023-09-30T20:15:52;98569.09;;;13.78;74.86
76052;BME280;64751;48.708;9.710;2023-09-30T20:18:21;98575.97;;;13.79;75.26
76052;BME280;64751;48.708;9.710;2023-09-30T20:20:48;98575.97;;;13.79;74.84
76052;BME280;64751;48.708;9.710;2023-09-30T20:23:16;98576.56;;;13.71;75.12
76052;BME280;64751;48.708;9.710;2023-09-30T20:25:45;98584.00;;;13.69;75.36
76052;BME280;64751;48.708;9.710;2023-09-30T20:28:12;98577.88;;;13.68;75.44
76052;BME280;64751;48.708;9.710;2023-09-30T20:30:42;98579.22;;;13.66;75.13
76052;BME280;64751;48.708;9.710;2023-09-30T20:33:09;98580.53;;;13.63;75.00
76052;BME280;64751;48.708;9.710;2023-09-30T20:35:39;98568.59;;;13.61;75.51
76052;BME280;64751;48.708;9.710;2023-09-30T20:38:07;98570.22;;;13.62;75.41
76052;BME280;64751;48.708;9.710;2023-09-30T20:40:34;98571.53;;;13.59;74.90
76052;BME280;64751;48.708;9.710;2023-09-30T20:43:02;98567.31;;;13.58;74.60
76052;BME280;64751;48.708;9.710;2023-09-30T20:45:32;98578.19;;;13.57;75.14
76052;BME280;64751;48.708;9.710;2023-09-30T20:47:59;98566.00;;;13.56;74.77
76052;BME280;64751;48.708;9.710;2023-09-30T20:50:28;98567.31;;;13.48;75.12
76052;BME280;64751;48.708;9.710;2023-09-30T20:52:58;98566.00;;;13.51;75.24
76052;BME280;64751;48.708;9.710;2023-09-30T20:55:25;98561.78;;;13.45;74.86
76052;BME280;64751;48.708;9.710;2023-09-30T20:57:55;98562.53;;;13.45;74.72
76052;BME280;64751;48.708;9.710;2023-09-30T21:00:22;98562.56;;;13.40;74.56
76052;BME280;64751;48.708;9.710;2023-09-30T21:02:50;98567.88;;;13.35;74.67
76052;BME280;64751;48.708;9.710;2023-09-30T21:05:18;98564.97;;;13.37;74.60
76052;BME280;64751;48.708;9.710;2023-09-30T21:07:46;98556.22;;;13.31;74.48
76052;BME280;64751;48.708;9.710;2023-09-30T21:10:15;98568.69;;;13.26;74.06
76052;BME280;64751;48.708;9.710;2023-09-30T21:12:43;98557.84;;;13.22;73.97
76052;BME280;64751;48.708;9.710;2023-09-30T21:15:11;98564.19;;;13.21;73.94
76052;BME280;64751;48.708;9.710;2023-09-30T21:17:38;98561.00;;;13.19;73.80
76052;BME280;64751;48.708;9.710;2023-09-30T21:20:07;98565.50;;;13.19;74.10
76052;BME280;64751;48.708;9.710;2023-09-30T21:22:34;98568.72;;;13.16;74.22
76052;BME280;64751;48.708;9.710;2023-09-30T21:25:02;98564.47;;;12.99;74.92
76052;BME280;64751;48.708;9.710;2023-09-30T21:27:32;98564.69;;;12.98;75.33
76052;BME280;64751;48.708;9.710;2023-09-30T21:30:01;98564.47;;;12.99;75.09
76052;BME280;64751;48.708;9.710;2023-09-30T21:32:28;98557.53;;;12.98;75.47
76052;BME280;64751;48.708;9.710;2023-09-30T21:34:56;98563.66;;;12.99;74.93
76052;BME280;64751;48.708;9.710;2023-09-30T21:37:23;98562.31;;;12.96;74.44
76052;BME280;64751;48.708;9.710;2023-09-30T21:39:52;98570.81;;;12.98;74.32
76052;BME280;64751;48.708;9.710;2023-09-30T21:42:20;98567.63;;;13.01;74.21
76052;BME280;64751;48.708;9.710;2023-09-30T21:44:49;98563.66;;;12.99;74.34
76052;BME280;64751;48.708;9.710;2023-09-30T21:47:17;98560.19;;;12.98;74.44
76052;BME280;64751;48.708;9.710;2023-09-30T21:49:45;98554.13;;;12.93;74.06
76052;BME280;64751;48.708;9.710;2023-09-30T21:52:13;98568.72;;;12.95;74.53
76052;BME280;64751;48.708;9.710;2023-09-30T21:54:40;98573.22;;;12.95;74.73
76052;BME280;64751;48.708;9.710;2023-09-30T21:57:08;98576.66;;;12.90;74.24
76052;BME280;64751;48.708;9.710;2023-09-30T21:59:36;98581.16;;;12.90;74.22
